Time;durP1;ratioP1;P1;durP2;ratioP2;P2;SDS_P1;SDS_P2;PMS_P1;PMS_P2;Temp;Humidity;BMP_temperature;BMP_pressure;BME280_temperature;BME280_humidity;BME280_pressure;Samples;Min_cycle;Max_cycle;Signal;HPM_P1;HPM_P2
2024/01/09 00:00:29;;;;;;;7.72;3.80;;;;;;;;;;6165932;23;20832;-81
2024/01/09 00:03:38;;;;;;;;;;;;;;;;;;;;;
2024/01/09 00:06:39;;;;;;;6.78;3.70;;;;;;;;;;6136964;23;20444;-80
2024/01/09 00:09:48;;;;;;;8.15;4.00;;;;;;;;;;6161806;23;20362;-81
2024/01/09 00:12:17;;;;;;;7.63;4.20;;;;;;;;;;6131094;23;20369;-80
2024/01/09 00:14:46;;;;;;;7.03;3.80;;;;;;;;;;6130581;23;20381;-81
2024/01/09 00:17:12;;;;;;;10.88;4.18;;;;;;;;;;6132128;23;20396;-81
2024/01/09 00:19:41;;;;;;;7.53;3.70;;;;;;;;;;6132421;23;20765;-81
2024/01/09 00:22:07;;;;;;;8.05;3.95;;;;;;;;;;6107466;23;20412;-81
2024/01/09 00:24:33;;;;;;;7.90;4.20;;;;;;;;;;6131444;23;20401;-81
2024/01/09 00:27:00;;;;;;;6.63;3.80;;;;;;;;;;6107767;23;20384;-81
2024/01/09 00:29:26;;;;;;;7.65;4.05;;;;;;;;;;6132078;23;20369;-81
2024/01/09 00:31:53;;;;;;;7.25;4.00;;;;;;;;;;6162167;23;20451;-81
2024/01/09 00:34:19;;;;;;;7.20;3.92;;;;;;;;;;6192263;23;20377;-81
2024/01/09 00:36:45;;;;;;;8.15;4.20;;;;;;;;;;6167848;23;20386;-81
2024/01/09 00:39:12;;;;;;;7.90;4.25;;;;;;;;;;6192510;23;20373;-81
2024/01/09 00:41:38;;;;;;;7.45;4.25;;;;;;;;;;6192715;23;20410;-81
2024/01/09 00:44:07;;;;;;;9.07;4.22;;;;;;;;;;6192155;23;20879;-81
2024/01/09 00:46:33;;;;;;;7.35;4.30;;;;;;;;;;6168102;23;20418;-81
2024/01/09 00:48:59;;;;;;;7.45;3.90;;;;;;;;;;6192967;23;20828;-81
2024/01/09 00:51:28;;;;;;;7.80;4.15;;;;;;;;;;6192647;23;20441;-81
2024/01/09 00:53:55;;;;;;;8.90;4.57;;;;;;;;;;6167339;23;20490;-81
2024/01/09 00:56:22;;;;;;;9.68;4.45;;;;;;;;;;6167492;23;20476;-81
2024/01/09 00:58:51;;;;;;;7.73;4.33;;;;;;;;;;6217808;23;20374;-81
2024/01/09 01:01:17;;;;;;;8.57;4.30;;;;;;;;;;6167635;23;20370;-81
2024/01/09 01:03:43;;;;;;;8.65;4.53;;;;;;;;;;6216874;23;20437;-81
2024/01/09 01:06:10;;;;;;;7.90;4.28;;;;;;;;;;6191581;23;20692;-81
2024/01/09 01:08:37;;;;;;;9.15;4.30;;;;;;;;;;6168059;23;20440;-81
2024/01/09 01:11:04;;;;;;;8.77;4.00;;;;;;;;;;6191540;23;20457;-81
2024/01/09 01:13:30;;;;;;;8.05;4.38;;;;;;;;;;6217175;23;20445;-81
2024/01/09 01:15:56;;;;;;;7.75;4.00;;;;;;;;;;6166787;23;20523;-81
2024/01/09 01:18:22;;;;;;;8.13;4.30;;;;;;;;;;6191788;23;20406;-81
2024/01/09 01:20:48;;;;;;;8.07;4.23;;;;;;;;;;6216168;23;20713;-81
2024/01/09 01:23:14;;;;;;;8.48;4.18;;;;;;;;;;6192485;23;20366;-81
2024/01/09 01:25:41;;;;;;;6.43;3.70;;;;;;;;;;6191720;23;20479;-81
2024/01/09 01:28:07;;;;;;;7.97;3.90;;;;;;;;;;6216878;23;20366;-81
2024/01/09 01:30:33;;;;;;;6.55;3.92;;;;;;;;;;6164093;23;20370;-81
2024/01/09 01:32:59;;;;;;;8.55;3.95;;;;;;;;;;6243281;23;20393;-81
2024/01/09 01:35:26;;;;;;;9.18;4.20;;;;;;;;;;6191560;23;20457;-81
2024/01/09 01:37:52;;;;;;;9.95;4.32;;;;;;;;;;6165844;23;20386;-81
2024/01/09 01:40:18;;;;;;;8.15;4.28;;;;;;;;;;6167412;23;20370;-81
2024/01/09 01:42:47;;;;;;;8.80;4.28;;;;;;;;;;6167123;23;20385;-81
2024/01/09 01:45:17;;;;;;;8.13;3.90;;;;;;;;;;6166692;23;20382;-81
2024/01/09 01:47:44;;;;;;;8.50;4.45;;;;;;;;;;6191379;23;20450;-81
2024/01/09 01:50:11;;;;;;;7.35;4.20;;;;;;;;;;6191593;23;20702;-81
2024/01/09 01:52:37;;;;;;;8.25;4.40;;;;;;;;;;6167220;23;20898;-81
2024/01/09 01:55:04;;;;;;;9.55;4.40;;;;;;;;;;6165727;23;20393;-81
2024/01/09 01:57:32;;;;;;;7.30;4.18;;;;;;;;;;6216790;23;20386;-81
2024/01/09 02:00:05;;;;;;;8.30;4.30;;;;;;;;;;6167766;23;20373;-81
2024/01/09 02:02:32;;;;;;;7.67;4.27;;;;;;;;;;6191810;23;20369;-81
2024/01/09 02:04:59;;;;;;;7.63;4.15;;;;;;;;;;6166979;23;20725;-81
2024/01/09 02:07:27;;;;;;;7.25;4.30;;;;;;;;;;6191238;23;20370;-81
2024/01/09 02:09:55;;;;;;;9.35;5.10;;;;;;;;;;6191219;23;20452;-82
2024/01/09 02:12:23;;;;;;;8.68;4.10;;;;;;;;;;6191540;23;20381;-81
2024/01/09 02:14:49;;;;;;;10.07;4.40;;;;;;;;;;6167437;23;20580;-82
2024/01/09 02:17:16;;;;;;;8.65;4.07;;;;;;;;;;6191229;23;20385;-81
2024/01/09 02:19:42;;;;;;;9.65;3.90;;;;;;;;;;6167486;23;20370;-81
2024/01/09 02:22:08;;;;;;;6.97;4.38;;;;;;;;;;6166828;23;20455;-81
2024/01/09 02:24:34;;;;;;;8.43;4.10;;;;;;;;;;6165663;23;20365;-81
2024/01/09 02:27:07;;;;;;;7.30;3.83;;;;;;;;;;6190868;23;20448;-81
2024/01/09 02:29:34;;;;;;;9.00;4.30;;;;;;;;;;6216962;23;20397;-81
2024/01/09 02:32:02;;;;;;;7.40;3.88;;;;;;;;;;6191829;23;20401;-81
2024/01/09 02:34:28;;;;;;;7.13;4.07;;;;;;;;;;6167350;23;20381;-81
2024/01/09 02:36:58;;;;;;;7.93;3.78;;;;;;;;;;6192075;23;20875;-81
2024/01/09 02:39:27;;;;;;;7.32;4.18;;;;;;;;;;6165952;23;20366;-81
2024/01/09 02:41:56;;;;;;;7.23;4.10;;;;;;;;;;6215480;23;20373;-82
2024/01/09 02:44:24;;;;;;;7.63;4.10;;;;;;;;;;6167751;23;20843;-82
2024/01/09 02:46:53;;;;;;;7.32;3.60;;;;;;;;;;6237811;23;20773;-81
2024/01/09 02:49:25;;;;;;;8.38;4.32;;;;;;;;;;6188383;23;20379;-81
2024/01/09 02:51:57;;;;;;;7.82;4.20;;;;;;;;;;6188004;23;20833;-81
2024/01/09 02:54:37;;;;;;;7.45;4.20;;;;;;;;;;6190031;23;20368;-81
2024/01/09 02:57:05;;;;;;;8.00;3.92;;;;;;;;;;6188319;23;20861;-82
2024/01/09 02:59:36;;;;;;;8.68;3.83;;;;;;;;;;6212319;23;20427;-82
2024/01/09 03:02:09;;;;;;;7.97;3.90;;;;;;;;;;6188438;23;20435;-82
2024/01/09 03:04:42;;;;;;;7.50;3.83;;;;;;;;;;6163334;23;20371;-81
2024/01/09 03:07:34;;;;;;;7.50;4.20;;;;;;;;;;6188332;23;20410;-81
2024/01/09 03:10:12;;;;;;;8.68;4.18;;;;;;;;;;6213335;23;20376;-81
2024/01/09 03:12:38;;;;;;;7.28;3.67;;;;;;;;;;6187602;23;20372;-81
2024/01/09 03:15:18;;;;;;;8.05;4.22;;;;;;;;;;6211584;23;20372;-81
2024/01/09 03:17:45;;;;;;;7.40;4.07;;;;;;;;;;6188014;23;20387;-81
2024/01/09 03:20:12;;;;;;;6.82;4.15;;;;;;;;;;6213342;23;20371;-81
2024/01/09 03:23:02;;;;;;;8.05;4.18;;;;;;;;;;6211383;23;20367;-80
2024/01/09 03:25:36;;;;;;;8.20;4.70;;;;;;;;;;6186589;23;20371;-81
2024/01/09 03:28:05;;;;;;;7.28;4.00;;;;;;;;;;6126460;23;20367;-81
2024/01/09 03:30:33;;;;;;;7.22;4.13;;;;;;;;;;6126523;23;20372;-81
2024/01/09 03:33:15;;;;;;;7.05;4.13;;;;;;;;;;6126592;23;20394;-81
2024/01/09 03:36:05;;;;;;;7.68;4.43;;;;;;;;;;6104549;23;20367;-80
2024/01/09 03:38:34;;;;;;;7.73;4.43;;;;;;;;;;6151651;23;20900;-81
2024/01/09 03:41:00;;;;;;;8.65;4.28;;;;;;;;;;6151929;23;20378;-81
2024/01/09 03:43:32;;;;;;;7.05;4.30;;;;;;;;;;6126090;23;20379;-81
2024/01/09 03:45:58;;;;;;;7.85;4.35;;;;;;;;;;6126365;23;20413;-80
2024/01/09 03:48:25;;;;;;;8.07;4.30;;;;;;;;;;6121268;23;20517;-81
2024/01/09 03:50:55;;;;;;;7.10;4.18;;;;;;;;;;6122297;23;20377;-81
2024/01/09 03:53:21;;;;;;;8.37;4.57;;;;;;;;;;6078849;23;20416;-81
2024/01/09 03:55:53;;;;;;;8.00;4.47;;;;;;;;;;6126051;23;20375;-80
2024/01/09 03:58:20;;;;;;;7.60;4.05;;;;;;;;;;6159945;23;20457;-81
2024/01/09 04:00:48;;;;;;;7.75;4.28;;;;;;;;;;6155800;23;20401;-80
2024/01/09 04:03:20;;;;;;;8.13;4.35;;;;;;;;;;6158672;23;20369;-80
2024/01/09 04:05:58;;;;;;;7.72;4.50;;;;;;;;;;6184586;23;20373;-80
2024/01/09 04:08:26;;;;;;;9.38;4.28;;;;;;;;;;6133689;23;20412;-80
2024/01/09 04:10:54;;;;;;;6.95;4.00;;;;;;;;;;6133736;23;20369;-80
2024/01/09 04:13:20;;;;;;;7.55;3.95;;;;;;;;;;6134021;23;20369;-80
2024/01/09 04:15:47;;;;;;;8.00;4.20;;;;;;;;;;6182160;23;20373;-80
2024/01/09 04:18:13;;;;;;;7.70;4.28;;;;;;;;;;6206747;23;20374;-80
2024/01/09 04:20:42;;;;;;;7.20;4.20;;;;;;;;;;6158916;23;20361;-80
2024/01/09 04:23:09;;;;;;;6.93;3.87;;;;;;;;;;6133074;23;20377;-80
2024/01/09 04:25:35;;;;;;;7.35;4.10;;;;;;;;;;6133158;23;20744;-80
2024/01/09 04:28:01;;;;;;;7.68;3.65;;;;;;;;;;6133078;23;20716;-80
2024/01/09 04:30:28;;;;;;;8.23;4.13;;;;;;;;;;6182695;23;20374;-80
2024/01/09 04:32:54;;;;;;;8.35;4.10;;;;;;;;;;6132223;23;20444;-81
2024/01/09 04:35:21;;;;;;;8.57;4.35;;;;;;;;;;6182435;23;21170;-80
2024/01/09 04:37:47;;;;;;;7.78;4.45;;;;;;;;;;6132313;23;20994;-80
2024/01/09 04:40:16;;;;;;;8.52;4.25;;;;;;;;;;6157739;23;20373;-80
2024/01/09 04:42:42;;;;;;;8.05;4.28;;;;;;;;;;6157465;23;20696;-80
2024/01/09 04:45:10;;;;;;;7.17;4.73;;;;;;;;;;6182256;23;20458;-80
2024/01/09 04:47:37;;;;;;;8.77;5.07;;;;;;;;;;6137997;23;20390;-80
2024/01/09 04:50:03;;;;;;;8.05;4.40;;;;;;;;;;6161981;23;20403;-80
2024/01/09 04:52:29;;;;;;;9.68;4.43;;;;;;;;;;6187402;23;20371;-79
2024/01/09 04:54:55;;;;;;;9.50;5.20;;;;;;;;;;6162282;23;20479;-80
2024/01/09 04:57:22;;;;;;;8.63;5.05;;;;;;;;;;6163454;23;20830;-80
2024/01/09 04:59:49;;;;;;;7.95;5.00;;;;;;;;;;6186050;23;20382;-80
2024/01/09 05:02:15;;;;;;;8.00;4.80;;;;;;;;;;6186615;23;20367;-80
2024/01/09 05:04:42;;;;;;;8.05;4.88;;;;;;;;;;6161773;23;20422;-80
2024/01/09 05:07:08;;;;;;;7.85;4.32;;;;;;;;;;6162196;23;20372;-80
2024/01/09 05:09:34;;;;;;;7.75;4.53;;;;;;;;;;6161834;23;20375;-80
2024/01/09 05:12:03;;;;;;;7.43;4.20;;;;;;;;;;6163030;23;20378;-80
2024/01/09 05:14:29;;;;;;;7.00;4.00;;;;;;;;;;6186966;23;20379;-80
2024/01/09 05:16:55;;;;;;;8.18;4.55;;;;;;;;;;6162795;23;20850;-79
2024/01/09 05:19:22;;;;;;;7.00;3.97;;;;;;;;;;6162498;23;20375;-79
2024/01/09 05:21:48;;;;;;;7.95;4.20;;;;;;;;;;6186078;23;20375;-79
2024/01/09 05:24:14;;;;;;;7.88;4.30;;;;;;;;;;6187288;23;20682;-79
2024/01/09 05:26:41;;;;;;;6.75;4.18;;;;;;;;;;6187009;23;20380;-79
2024/01/09 05:29:07;;;;;;;8.00;4.50;;;;;;;;;;6163104;23;20371;-79
2024/01/09 05:31:33;;;;;;;8.40;4.60;;;;;;;;;;6186850;23;20372;-78
2024/01/09 05:33:59;;;;;;;8.13;4.93;;;;;;;;;;6162545;23;20376;-79
2024/01/09 07:39:32;;;;;;;9.15;5.13;;;;;;;;;;5120149;27;20381;-80
2024/01/09 07:41:58;;;;;;;8.68;4.68;;;;;;;;;;5106950;28;20942;-81
2024/01/09 07:44:24;;;;;;;7.63;4.22;;;;;;;;;;5107473;28;20432;-81
2024/01/09 07:46:51;;;;;;;9.47;5.50;;;;;;;;;;5123428;27;20467;-82
2024/01/09 07:49:17;;;;;;;9.15;4.90;;;;;;;;;;5098908;28;20429;-81
2024/01/09 07:51:43;;;;;;;7.57;4.40;;;;;;;;;;5106192;28;20531;-81
2024/01/09 07:54:09;;;;;;;8.57;4.40;;;;;;;;;;5121492;27;20411;-81
2024/01/09 07:56:37;;;;;;;8.87;5.13;;;;;;;;;;5128532;27;20418;-81
2024/01/09 07:59:03;;;;;;;8.75;4.88;;;;;;;;;;5097691;28;20423;-81
2024/01/09 08:01:31;;;;;;;14.52;7.10;;;;;;;;;;5109162;28;20915;-81
2024/01/09 08:03:57;;;;;;;19.75;8.80;;;;;;;;;;5076168;28;20791;-81
2024/01/09 08:06:23;;;;;;;12.52;6.32;;;;;;;;;;5120547;28;20419;-81
2024/01/09 08:08:49;;;;;;;16.45;7.28;;;;;;;;;;5088401;28;20414;-82
2024/01/09 08:11:16;;;;;;;15.65;7.00;;;;;;;;;;5095902;28;20426;-82
2024/01/09 08:13:45;;;;;;;15.80;7.10;;;;;;;;;;5096826;28;20415;-81
2024/01/09 08:16:14;;;;;;;9.40;5.00;;;;;;;;;;5094661;28;20425;-81
2024/01/09 08:18:40;;;;;;;10.20;4.70;;;;;;;;;;5099684;28;20425;-82
2024/01/09 08:21:06;;;;;;;14.60;6.40;;;;;;;;;;5089831;28;20395;-82
2024/01/09 08:23:32;;;;;;;17.27;6.57;;;;;;;;;;5072045;28;20881;-82
2024/01/09 08:26:01;;;;;;;11.73;5.37;;;;;;;;;;5105336;28;20401;-82
2024/01/09 08:28:28;;;;;;;10.80;4.65;;;;;;;;;;5059072;28;20495;-82
2024/01/09 08:30:54;;;;;;;9.60;4.50;;;;;;;;;;5100981;28;20413;-82
2024/01/09 08:33:20;;;;;;;16.40;6.53;;;;;;;;;;5078029;28;20544;-83
2024/01/09 08:35:50;;;;;;;24.33;8.75;;;;;;;;;;5086954;28;20429;-82
2024/01/09 08:38:17;;;;;;;12.73;5.45;;;;;;;;;;5105564;28;20429;-83
2024/01/09 08:40:53;;;;;;;28.58;10.82;;;;;;;;;;5085157;28;20430;-82
2024/01/09 08:43:19;;;;;;;8.98;4.18;;;;;;;;;;5079744;28;20431;-82
2024/01/09 08:45:47;;;;;;;25.70;8.20;;;;;;;;;;5086594;28;20500;-83
2024/01/09 08:48:13;;;;;;;31.92;9.23;;;;;;;;;;5066158;28;20402;-83
2024/01/09 08:50:39;;;;;;;24.70;7.68;;;;;;;;;;5104421;28;20520;-82
2024/01/09 08:53:05;;;;;;;8.03;4.03;;;;;;;;;;5085978;28;20460;-82
2024/01/09 08:55:31;;;;;;;7.95;4.45;;;;;;;;;;5084081;28;20401;-82
2024/01/09 08:57:57;;;;;;;9.50;5.50;;;;;;;;;;5081996;28;20437;-82
2024/01/09 09:00:23;;;;;;;7.70;4.25;;;;;;;;;;5078303;28;21192;-82
2024/01/09 09:02:50;;;;;;;7.22;4.20;;;;;;;;;;5068543;28;20407;-81
2024/01/09 09:05:17;;;;;;;7.15;3.65;;;;;;;;;;5063188;28;20408;-82
2024/01/09 09:07:43;;;;;;;6.53;3.87;;;;;;;;;;5061338;28;20415;-82
2024/01/09 09:10:10;;;;;;;7.53;4.03;;;;;;;;;;5078992;28;20431;-80
2024/01/09 09:12:36;;;;;;;6.60;4.07;;;;;;;;;;5055576;28;20404;-81
2024/01/09 09:15:03;;;;;;;7.85;3.97;;;;;;;;;;5088502;28;20746;-81
2024/01/09 09:17:30;;;;;;;6.95;4.10;;;;;;;;;;5076876;28;20427;-81
2024/01/09 09:19:57;;;;;;;7.13;3.70;;;;;;;;;;5089699;28;20495;-81
2024/01/09 09:22:25;;;;;;;6.40;4.10;;;;;;;;;;5084339;28;20425;-81
2024/01/09 09:24:52;;;;;;;6.75;3.90;;;;;;;;;;5082832;28;20902;-82
2024/01/09 09:27:19;;;;;;;6.43;3.80;;;;;;;;;;5072130;28;20765;-77
2024/01/09 09:29:45;;;;;;;8.03;3.97;;;;;;;;;;5073518;28;21057;-77
2024/01/09 09:32:11;;;;;;;7.15;3.75;;;;;;;;;;5057299;28;20390;-77
2024/01/09 09:34:40;;;;;;;7.90;3.60;;;;;;;;;;5074201;28;20390;-77
2024/01/09 09:37:06;;;;;;;9.15;4.45;;;;;;;;;;5066727;28;20399;-77
2024/01/09 09:39:33;;;;;;;9.60;4.22;;;;;;;;;;5082353;28;20479;-77
2024/01/09 09:41:59;;;;;;;8.65;4.07;;;;;;;;;;5066391;28;20398;-77
2024/01/09 09:44:26;;;;;;;6.90;3.70;;;;;;;;;;5054560;28;20972;-77
2024/01/09 09:46:52;;;;;;;7.00;3.92;;;;;;;;;;5064286;28;20402;-77
2024/01/09 09:49:22;;;;;;;8.90;3.53;;;;;;;;;;5087795;28;20402;-77
2024/01/09 09:51:50;;;;;;;12.40;6.75;;;;;;;;;;5069664;28;20404;-77
2024/01/09 09:54:17;;;;;;;8.17;4.50;;;;;;;;;;5072002;28;20752;-77
2024/01/09 09:56:44;;;;;;;7.87;4.50;;;;;;;;;;5076863;28;20515;-76
2024/01/09 09:59:11;;;;;;;7.00;4.00;;;;;;;;;;5073436;28;20424;-78
2024/01/09 10:01:37;;;;;;;7.72;3.78;;;;;;;;;;5059205;28;20517;-77
2024/01/09 10:04:16;;;;;;;7.00;4.10;;;;;;;;;;5084371;28;20418;-83
2024/01/09 10:06:44;;;;;;;6.82;4.20;;;;;;;;;;5085878;28;20394;-78
2024/01/09 10:09:13;;;;;;;8.70;4.70;;;;;;;;;;5079680;28;20410;-78
2024/01/09 10:11:39;;;;;;;8.43;4.70;;;;;;;;;;5070273;28;20451;-78
2024/01/09 10:14:10;;;;;;;7.75;4.72;;;;;;;;;;5081167;28;20407;-79
2024/01/09 10:16:49;;;;;;;8.70;4.68;;;;;;;;;;5075969;28;20403;-79
2024/01/09 10:19:16;;;;;;;6.27;3.73;;;;;;;;;;5061333;28;20528;-79
2024/01/09 10:21:42;;;;;;;6.17;3.60;;;;;;;;;;5069578;28;20451;-80
2024/01/09 10:24:08;;;;;;;7.50;3.60;;;;;;;;;;5054182;28;20396;-81
2024/01/09 10:26:34;;;;;;;5.97;3.50;;;;;;;;;;5055629;28;20409;-81
2024/01/09 10:29:03;;;;;;;7.23;3.60;;;;;;;;;;5072114;28;20428;-81
2024/01/09 10:31:30;;;;;;;9.13;3.80;;;;;;;;;;5055275;28;20425;-81
2024/01/09 10:33:57;;;;;;;6.07;3.70;;;;;;;;;;5091523;28;20401;-82
2024/01/09 10:36:23;;;;;;;6.00;3.38;;;;;;;;;;5057659;28;20402;-81
2024/01/09 10:38:51;;;;;;;6.75;3.70;;;;;;;;;;5074652;28;20429;-82
2024/01/09 10:41:20;;;;;;;7.78;3.90;;;;;;;;;;5074974;28;20402;-83
2024/01/09 10:43:49;;;;;;;7.07;4.13;;;;;;;;;;5073893;28;20405;-82
2024/01/09 10:46:15;;;;;;;6.23;3.73;;;;;;;;;;5070291;28;20425;-83
2024/01/09 10:48:41;;;;;;;6.30;3.60;;;;;;;;;;5073492;28;20508;-82
2024/01/09 10:51:11;;;;;;;6.63;3.50;;;;;;;;;;5069612;28;20438;-80
2024/01/09 10:53:40;;;;;;;6.30;3.47;;;;;;;;;;5087869;28;20410;-84
2024/01/09 10:56:09;;;;;;;6.87;3.80;;;;;;;;;;5070032;28;20523;-85
2024/01/09 10:58:35;;;;;;;7.70;3.53;;;;;;;;;;5070406;28;20919;-85
2024/01/09 11:01:02;;;;;;;6.03;3.45;;;;;;;;;;5064754;28;20402;-83
2024/01/09 11:03:28;;;;;;;6.10;3.60;;;;;;;;;;5062369;28;20436;-82
2024/01/09 11:05:59;;;;;;;8.23;3.45;;;;;;;;;;5089716;28;20444;-82
2024/01/09 11:08:26;;;;;;;4.90;3.00;;;;;;;;;;5066349;28;20430;-84
2024/01/09 11:10:53;;;;;;;5.75;3.30;;;;;;;;;;5073180;28;20723;-84
2024/01/09 11:13:21;;;;;;;9.10;3.53;;;;;;;;;;5064692;28;20402;-84
2024/01/09 11:15:54;;;;;;;5.50;3.30;;;;;;;;;;5066889;28;20783;-84
2024/01/09 11:28:47;;;;;;;5.53;3.15;;;;;;;;;;4985476;28;20449;-84
2024/01/09 11:31:24;;;;;;;5.97;3.33;;;;;;;;;;4974181;28;20406;-84
2024/01/09 11:34:02;;;;;;;6.50;3.70;;;;;;;;;;4990119;28;20421;-85
2024/01/09 11:42:54;;;;;;;6.17;3.33;;;;;;;;;;4931466;29;21153;-84
2024/01/09 11:45:29;;;;;;;5.50;3.25;;;;;;;;;;4973037;28;20882;-83
2024/01/09 11:48:03;;;;;;;5.68;3.20;;;;;;;;;;4983368;28;20929;-84
2024/01/09 11:50:54;;;;;;;5.25;3.00;;;;;;;;;;5069298;28;20461;-83
2024/01/09 11:53:47;;;;;;;4.97;2.87;;;;;;;;;;5057366;28;20467;-84
2024/01/09 11:56:35;;;;;;;4.70;2.65;;;;;;;;;;5052917;28;20486;-82
2024/01/09 11:59:42;;;;;;;5.35;2.83;;;;;;;;;;5085684;28;20435;-83
2024/01/09 12:02:24;;;;;;;5.65;2.72;;;;;;;;;;5069636;28;20424;-83
2024/01/09 12:08:07;;;;;;;5.13;3.10;;;-0.30;91.60;;;;;;5090493;28;20402;-84
2024/01/09 12:11:12;;;;;;;5.05;2.90;;;;;;;;;;5068661;28;20408;-83
2024/01/09 12:13:48;;;;;;;5.20;2.67;;;;;;;;;;5049441;28;20462;-83
2024/01/09 12:16:53;;;;;;;5.57;3.15;;;;;;;;;;5067028;28;20427;-83
2024/01/09 12:19:23;;;;;;;5.57;3.00;;;;;;;;;;5050560;28;20947;-83
2024/01/09 12:22:17;;;;;;;4.90;2.60;;;;;;;;;;5051172;28;20911;-83
2024/01/09 12:25:05;;;;;;;5.03;2.65;;;;;;;;;;5052346;28;20408;-82
2024/01/09 12:27:31;;;;;;;5.03;2.60;;;;;;;;;;5049679;28;20888;-82
2024/01/09 12:30:22;;;;;;;7.80;2.80;;;;;;;;;;5032897;28;20830;-82
2024/01/09 12:33:08;;;;;;;5.88;2.80;;;;;;;;;;5067092;28;20791;-82
2024/01/09 12:35:42;;;;;;;5.63;3.13;;;;;;;;;;5012850;28;20426;-82
2024/01/09 12:38:34;;;;;;;6.72;3.30;;;;;;;;;;4999069;28;20815;-82
2024/01/09 12:41:26;;;;;;;4.80;2.80;;;;;;;;;;5004824;28;20467;-82
2024/01/09 12:44:29;;;;;;;7.80;4.68;;;;;;;;;;5001769;28;20419;-81
2024/01/09 12:46:55;;;;;;;12.52;7.25;;;;;;;;;;4987667;28;20405;-82
2024/01/09 12:49:21;;;;;;;6.75;4.60;;;;;;;;;;4995102;28;20500;-82
2024/01/09 12:51:58;;;;;;;;;;;;;;;;;;;;;
2024/01/09 12:54:31;;;;;;;6.25;3.40;;;;;;;;;;4954275;28;20926;-84
2024/01/09 13:00:11;;;;;;;4.72;3.08;;;;;;;;;;4913990;29;20547;-84
2024/01/09 13:03:11;;;;;;;4.00;2.55;;;;;;;;;;4915999;29;20514;-85
2024/01/09 13:05:39;;;;;;;4.60;2.80;;;;;;;;;;4980754;28;20539;-84
2024/01/09 13:08:06;;;;;;;4.78;2.90;;;;;;;;;;4975388;28;20953;-84
2024/01/09 13:11:02;;;;;;;6.15;3.20;;;;;;;;;;4953301;28;20494;-85
2024/01/09 13:13:29;;;;;;;5.00;3.03;;;;;;;;;;4987938;28;20418;-82
2024/01/09 13:15:55;;;;;;;5.63;3.50;;;;;;;;;;4958973;28;20441;-82
2024/01/09 13:18:21;;;;;;;4.80;2.90;;;;;;;;;;5020722;28;20931;-82
2024/01/09 13:20:49;;;;;;;4.72;2.92;;;;;;;;;;5035192;28;20431;-82
2024/01/09 13:23:19;;;;;;;4.80;3.13;;;;;;;;;;5037184;28;20470;-82
2024/01/09 13:25:45;;;;;;;4.55;3.03;;;;;;;;;;5036614;28;20403;-81
2024/01/09 13:28:12;;;;;;;4.68;2.72;;;;;;;;;;5038645;28;20927;-82
2024/01/09 13:30:38;;;;;;;4.75;2.70;;;;;;;;;;5054774;28;20407;-81
2024/01/09 13:33:06;;;;;;;5.30;2.95;;;;;;;;;;5037632;28;20407;-84
2024/01/09 13:35:33;;;;;;;5.00;3.05;;;;;;;;;;5035180;28;20492;-84
2024/01/09 13:38:00;;;;;;;5.63;3.42;;;;;;;;;;5027600;28;20425;-83
2024/01/09 13:40:53;;;;;;;5.10;2.80;;;;;;;;;;5025251;28;20437;-85
2024/01/09 13:43:40;;;;;;;4.82;3.22;;;;;;;;;;5054470;28;20394;-83
2024/01/09 13:46:11;;;;;;;4.50;2.88;;;;;;;;;;5091528;28;20409;-84
2024/01/09 13:52:21;;;;;;;4.40;2.58;;;;;;;;;;5049013;28;20407;-84
2024/01/09 13:54:49;;;;;;;5.03;2.88;;;;;;;;;;5005137;28;20792;-81
2024/01/09 13:57:58;;;;;;;4.60;2.70;;;;;;;;;;4992081;28;20430;-81
2024/01/09 14:04:39;;;;;;;5.10;2.72;;;;;;;;;;4994775;28;20822;-85
2024/01/09 14:07:42;;;;;;;4.63;2.55;;;;;;;;;;4943269;29;20441;-83
2024/01/09 14:10:26;;;;;;;5.72;2.70;;;;;;;;;;4937832;29;20481;-84
2024/01/09 14:13:18;;;;;;;4.22;2.38;;;;;;;;;;4926864;29;20427;-82
2024/01/09 14:15:45;;;;;;;4.22;2.47;;;;;;;;;;4926793;29;20479;-83
2024/01/09 14:18:11;;;;;;;5.88;2.63;;;;;;;;;;4941455;28;20428;-84
2024/01/09 14:20:46;;;;;;;4.88;2.55;;;;;;;;;;4958676;28;20426;-81
2024/01/09 14:23:41;;;;;;;5.20;2.60;;;;;;;;;;4979056;28;20800;-80
2024/01/09 14:26:17;;;;;;;5.95;2.67;;;;;;;;;;4976303;28;20428;-84
2024/01/09 14:28:46;;;;;;;6.15;2.53;;;;;;;;;;5039523;28;20417;-85
2024/01/09 14:31:15;;;;;;;5.25;2.53;;;;;;;;;;5017938;28;20818;-82
2024/01/09 14:33:41;;;;;;;5.38;2.83;;;;;;;;;;4990954;28;20547;-84
2024/01/09 14:36:11;;;;;;;5.30;2.90;;;;;;;;;;5047929;28;20854;-84
2024/01/09 14:38:37;;;;;;;4.63;2.72;;;;;;;;;;5056278;28;20431;-84
2024/01/09 14:41:03;;;;;;;5.32;3.30;;;;;;;;;;5086574;28;20423;-82
2024/01/09 14:43:35;;;;;;;5.28;2.70;;;;;;;;;;5085508;28;20729;-85
2024/01/09 14:46:08;;;;;;;6.17;3.20;;;;;;;;;;5064271;28;20483;-85
2024/01/09 14:48:42;;;;;;;4.80;3.05;;;;;;;;;;5089421;28;20434;-85
2024/01/09 14:51:16;;;;;;;4.68;2.80;;;;;;;;;;5070876;28;20412;-85
2024/01/09 14:53:48;;;;;;;5.20;2.97;;;;;;;;;;5073865;28;20430;-84
2024/01/09 14:56:53;;;;;;;7.20;3.70;;;;;;;;;;5051360;28;20415;-85
2024/01/09 15:02:35;;;;;;;8.57;4.57;;;;;;;;;;5083476;28;20398;-84
2024/01/09 15:05:01;;;;;;;5.97;3.20;;;;;;;;;;5079129;28;20721;-84
2024/01/09 15:07:36;;;;;;;5.63;3.10;;;;;;;;;;5087941;28;20767;-84
2024/01/09 15:10:16;;;;;;;5.70;2.95;;;;;;;;;;5083449;28;20453;-84
2024/01/09 15:12:49;;;;;;;5.25;3.08;;;;;;;;;;5051902;28;20434;-84
2024/01/09 15:15:23;;;;;;;6.82;3.25;;;;;;;;;;5054042;28;20926;-84
2024/01/09 15:17:59;;;;;;;5.80;3.47;;;;;;;;;;5050336;28;20418;-84
2024/01/09 15:20:28;;;;;;;4.90;2.90;;;;;;;;;;5055777;28;20496;-84
2024/01/09 15:23:01;;;;;;;5.80;3.33;;;;;;;;;;5069495;28;20447;-84
2024/01/09 15:25:58;;;;;;;5.05;3.22;;;;;;;;;;5059145;28;20411;-84
2024/01/09 15:28:24;;;;;;;6.68;3.60;;;;;;;;;;5066894;28;20435;-82
2024/01/09 15:30:53;;;;;;;5.18;3.25;;;;;;;;;;5061419;28;20476;-84
2024/01/09 15:33:22;;;;;;;7.57;4.27;;;;;;;;;;5057869;28;20403;-83
2024/01/09 15:35:48;;;;;;;6.32;3.30;;;;;;;;;;5045265;28;20405;-84
2024/01/09 15:38:54;;;;;;;6.15;3.38;;;;;;;;;;5074473;28;20465;-80
2024/01/09 15:42:14;;;;;;;;;;;;;;;;;;;;;
2024/01/09 15:48:16;;;;;;;9.93;5.07;;;;;;;;;;5097040;28;20501;-85
2024/01/09 15:51:30;;;;;;;10.82;4.60;;;-0.90;99.90;;;;;;5058737;28;20551;-81
2024/01/09 16:01:07;;;;;;;11.73;5.03;;;;;;;;;;5052645;28;20479;-84
2024/01/09 16:03:56;;;;;;;12.93;4.97;;;;;;;;;;5018734;28;20405;-84
2024/01/09 16:06:36;;;;;;;8.65;4.07;;;;;;;;;;5016956;28;20398;-85
2024/01/09 16:09:03;;;;;;;8.93;4.15;;;;;;;;;;5082919;28;20479;-84
2024/01/09 16:11:42;;;;;;;7.60;3.70;;;;;;;;;;5070160;28;20473;-84
2024/01/09 16:14:26;;;;;;;9.00;4.10;;;;;;;;;;5078333;28;20520;-84
2024/01/09 16:17:00;;;;;;;7.25;3.50;;;;;;;;;;5087839;28;20420;-83
2024/01/09 16:19:27;;;;;;;7.30;3.85;;;;;;;;;;5088725;28;20413;-82
2024/01/09 16:22:03;;;;;;;10.82;4.82;;;;;;;;;;5097339;28;20903;-83
2024/01/09 16:28:19;;;;;;;6.18;3.33;;;;;;;;;;5109746;28;20397;-84
2024/01/09 16:31:01;;;;;;;5.25;3.05;;;;;;;;;;5077843;28;20758;-84
2024/01/09 16:33:55;;;;;;;6.22;3.15;;;;;;;;;;5067538;28;20404;-84
2024/01/09 16:40:04;;;;;;;7.10;3.33;;;;;;;;;;5096668;27;20404;-81
2024/01/09 16:42:32;;;;;;;7.13;3.30;;;;;;;;;;5095129;27;20478;-82
2024/01/09 16:45:02;;;;;;;5.60;3.17;;;;;;;;;;5066067;28;20416;-82
2024/01/09 16:47:28;;;;;;;6.93;3.55;;;;;;;;;;5079153;28;20400;-82
2024/01/09 16:49:54;;;;;;;8.55;4.20;;;;;;;;;;5070129;28;20480;-82
2024/01/09 16:52:20;;;;;;;8.17;4.40;;;;;;;;;;5096359;28;20464;-83
2024/01/09 16:54:46;;;;;;;9.02;4.32;;;;;;;;;;5097375;28;20395;-82
2024/01/09 16:57:12;;;;;;;9.00;4.43;;;;;;;;;;5079317;28;20483;-82
2024/01/09 16:59:38;;;;;;;10.52;5.80;;;;;;;;;;5077053;28;20416;-82
2024/01/09 17:02:10;;;;;;;8.68;4.80;;;;;;;;;;5074599;28;20402;-83
2024/01/09 17:04:36;;;;;;;8.00;4.93;;;;;;;;;;5085574;28;20396;-83
2024/01/09 17:07:02;;;;;;;6.53;4.10;;;;;;;;;;5047561;28;20425;-82
2024/01/09 17:09:30;;;;;;;6.03;3.53;;;;;;;;;;5089585;28;20741;-82
2024/01/09 17:11:56;;;;;;;10.73;5.60;;;;;;;;;;5071773;28;20408;-82
2024/01/09 17:14:22;;;;;;;9.07;4.15;;;;;;;;;;5074997;28;20435;-82
2024/01/09 17:16:48;;;;;;;8.57;4.45;;;;;;;;;;5100512;27;20490;-82
2024/01/09 17:19:17;;;;;;;6.88;3.92;;;;;;;;;;5096086;27;20422;-83
2024/01/09 17:21:44;;;;;;;7.32;3.85;;;;;;;;;;5080840;28;20400;-81
2024/01/09 17:24:10;;;;;;;6.72;4.10;;;;;;;;;;5101492;28;20404;-81
2024/01/09 17:26:36;;;;;;;6.63;3.75;;;;;;;;;;5084302;28;20467;-81
2024/01/09 17:29:03;;;;;;;7.53;4.18;;;;;;;;;;5100719;28;20423;-81
2024/01/09 17:31:30;;;;;;;6.90;3.65;;;;;;;;;;5098973;27;20475;-81
2024/01/09 17:33:56;;;;;;;5.75;3.60;;;;;;;;;;5063271;28;20484;-81
2024/01/09 17:36:22;;;;;;;6.13;3.40;;;;;;;;;;5082863;27;20489;-81
2024/01/09 17:38:48;;;;;;;7.25;3.60;;;;;;;;;;5063596;28;20489;-81
2024/01/09 17:41:14;;;;;;;6.90;3.80;;;;;;;;;;5088207;28;20392;-81
2024/01/09 17:43:40;;;;;;;6.63;3.75;;;;;;;;;;5060031;28;20491;-80
2024/01/09 17:46:06;;;;;;;5.85;3.70;;;;;;;;;;5061034;28;20414;-81
2024/01/09 17:48:33;;;;;;;6.90;3.60;;;;;;;;;;5083064;28;20420;-81
2024/01/09 17:50:59;;;;;;;7.20;3.95;;;;;;;;;;5067513;28;20419;-80
2024/01/09 17:53:25;;;;;;;7.63;4.10;;;;;;;;;;5075442;28;20401;-80
2024/01/09 17:55:52;;;;;;;8.23;4.25;;;;;;;;;;5071641;27;20434;-82
2024/01/09 17:58:20;;;;;;;6.35;4.15;;;;;;;;;;5078640;27;20934;-81
2024/01/09 18:00:48;;;;;;;7.55;4.53;;;;;;;;;;5061020;28;20412;-81